sensor_id;sensor_type;location;lat;lon;timestamp;temperature;humidity
15357;DHT22;7778;48.792;9.260;2023-08-20T00:00:54;24.00;99.90
15357;DHT22;7778;48.792;9.260;2023-08-20T00:03:41;24.00;99.90
15357;DHT22;7778;48.792;9.260;2023-08-20T00:06:28;23.80;99.90
15357;DHT22;7778;48.792;9.260;2023-08-20T00:09:14;23.70;99.90
15357;DHT22;7778;48.792;9.260;2023-08-20T00:11:59;23.70;99.90
15357;DHT22;7778;48.792;9.260;2023-08-20T00:14:56;23.70;99.90
15357;DHT22;7778;48.792;9.260;2023-08-20T00:17:49;23.60;99.90
15357;DHT22;7778;48.792;9.260;2023-08-20T00:20:36;23.60;99.90
15357;DHT22;7778;48.792;9.260;2023-08-20T00:23:22;23.60;99.90
15357;DHT22;7778;48.792;9.260;2023-08-20T00:26:08;23.60;99.90
15357;DHT22;7778;48.792;9.260;2023-08-20T00:28:56;23.60;99.90
15357;DHT22;7778;48.792;9.260;2023-08-20T00:31:43;23.70;99.90
15357;DHT22;7778;48.792;9.260;2023-08-20T00:34:28;23.50;99.90
15357;DHT22;7778;48.792;9.260;2023-08-20T00:37:14;23.40;99.90
15357;DHT22;7778;48.792;9.260;2023-08-20T00:39:59;23.30;99.90
15357;DHT22;7778;48.792;9.260;2023-08-20T00:42:45;23.30;99.90
15357;DHT22;7778;48.792;9.260;2023-08-20T00:45:31;23.30;99.90
15357;DHT22;7778;48.792;9.260;2023-08-20T00:48:18;23.40;99.90
15357;DHT22;7778;48.792;9.260;2023-08-20T00:51:04;23.30;99.90
15357;DHT22;7778;48.792;9.260;2023-08-20T00:53:50;23.40;99.90
15357;DHT22;7778;48.792;9.260;2023-08-20T00:56:35;23.40;99.90
15357;DHT22;7778;48.792;9.260;2023-08-20T00:59:23;23.40;99.90
15357;DHT22;7778;48.792;9.260;2023-08-20T01:02:08;23.40;99.90
15357;DHT22;7778;48.792;9.260;2023-08-20T01:04:55;23.40;99.90
15357;DHT22;7778;48.792;9.260;2023-08-20T01:07:58;23.40;99.90
15357;DHT22;7778;48.792;9.260;2023-08-20T01:10:57;23.40;99.90
15357;DHT22;7778;48.792;9.260;2023-08-20T01:13:44;23.40;99.90
15357;DHT22;7778;48.792;9.260;2023-08-20T01:16:30;23.40;99.90
15357;DHT22;7778;48.792;9.260;2023-08-20T01:19:18;23.30;99.90
15357;DHT22;7778;48.792;9.260;2023-08-20T01:22:29;23.30;99.90
15357;DHT22;7778;48.792;9.260;2023-08-20T01:25:46;23.20;99.90
15357;DHT22;7778;48.792;9.260;2023-08-20T01:28:41;23.10;99.90
15357;DHT22;7778;48.792;9.260;2023-08-20T01:31:28;23.10;99.90
15357;DHT22;7778;48.792;9.260;2023-08-20T01:34:13;23.00;99.90
15357;DHT22;7778;48.792;9.260;2023-08-20T01:36:59;23.10;99.90
15357;DHT22;7778;48.792;9.260;2023-08-20T01:39:45;23.00;99.90
15357;DHT22;7778;48.792;9.260;2023-08-20T01:42:30;23.00;99.90
15357;DHT22;7778;48.792;9.260;2023-08-20T01:45:17;23.00;99.90
15357;DHT22;7778;48.792;9.260;2023-08-20T01:48:04;23.00;99.90
15357;DHT22;7778;48.792;9.260;2023-08-20T01:50:50;23.00;99.90
15357;DHT22;7778;48.792;9.260;2023-08-20T01:53:35;23.00;99.90
15357;DHT22;7778;48.792;9.260;2023-08-20T01:56:21;23.00;99.90
15357;DHT22;7778;48.792;9.260;2023-08-20T01:59:06;23.00;99.90
15357;DHT22;7778;48.792;9.260;2023-08-20T02:01:53;23.00;99.90
15357;DHT22;7778;48.792;9.260;2023-08-20T02:04:39;23.00;99.90
15357;DHT22;7778;48.792;9.260;2023-08-20T02:07:24;22.80;99.90
15357;DHT22;7778;48.792;9.260;2023-08-20T02:10:10;22.80;99.90
15357;DHT22;7778;48.792;9.260;2023-08-20T02:12:55;22.70;99.90
15357;DHT22;7778;48.792;9.260;2023-08-20T02:15:41;22.70;99.90
15357;DHT22;7778;48.792;9.260;2023-08-20T02:18:28;22.70;99.90
15357;DHT22;7778;48.792;9.260;2023-08-20T02:21:14;22.60;99.90
15357;DHT22;7778;48.792;9.260;2023-08-20T02:23:59;22.60;99.90
15357;DHT22;7778;48.792;9.260;2023-08-20T02:26:45;22.50;99.90
15357;DHT22;7778;48.792;9.260;2023-08-20T02:29:30;22.50;99.90
15357;DHT22;7778;48.792;9.260;2023-08-20T02:32:16;22.40;99.90
15357;DHT22;7778;48.792;9.260;2023-08-20T02:35:03;22.40;99.90
15357;DHT22;7778;48.792;9.260;2023-08-20T02:37:49;22.30;99.90
15357;DHT22;7778;48.792;9.260;2023-08-20T02:40:39;22.30;99.90
15357;DHT22;7778;48.792;9.260;2023-08-20T02:43:26;22.40;99.90
15357;DHT22;7778;48.792;9.260;2023-08-20T02:46:11;22.40;99.90
15357;DHT22;7778;48.792;9.260;2023-08-20T02:48:57;22.40;99.90
15357;DHT22;7778;48.792;9.260;2023-08-20T02:51:44;22.30;99.90
15357;DHT22;7778;48.792;9.260;2023-08-20T02:54:30;22.30;99.90
15357;DHT22;7778;48.792;9.260;2023-08-20T02:57:17;22.40;99.90
15357;DHT22;7778;48.792;9.260;2023-08-20T03:00:03;22.30;99.90
15357;DHT22;7778;48.792;9.260;2023-08-20T03:02:53;22.30;99.90
15357;DHT22;7778;48.792;9.260;2023-08-20T03:05:39;22.30;99.90
15357;DHT22;7778;48.792;9.260;2023-08-20T03:08:27;22.30;99.90
15357;DHT22;7778;48.792;9.260;2023-08-20T03:11:12;22.30;99.90
15357;DHT22;7778;48.792;9.260;2023-08-20T03:13:58;22.30;99.90
15357;DHT22;7778;48.792;9.260;2023-08-20T03:16:43;22.20;99.90
15357;DHT22;7778;48.792;9.260;2023-08-20T03:19:33;22.20;99.90
15357;DHT22;7778;48.792;9.260;2023-08-20T03:22:20;22.10;99.90
15357;DHT22;7778;48.792;9.260;2023-08-20T03:25:07;22.10;99.90
15357;DHT22;7778;48.792;9.260;2023-08-20T03:27:53;22.10;99.90
15357;DHT22;7778;48.792;9.260;2023-08-20T03:30:38;22.10;99.90
15357;DHT22;7778;48.792;9.260;2023-08-20T03:33:24;22.00;99.90
15357;DHT22;7778;48.792;9.260;2023-08-20T03:36:10;22.10;99.90
15357;DHT22;7778;48.792;9.260;2023-08-20T03:38:55;22.00;99.90
15357;DHT22;7778;48.792;9.260;2023-08-20T03:41:43;22.10;99.90
15357;DHT22;7778;48.792;9.260;2023-08-20T03:44:29;21.90;99.90
15357;DHT22;7778;48.792;9.260;2023-08-20T03:47:16;21.90;99.90
15357;DHT22;7778;48.792;9.260;2023-08-20T03:50:05;21.80;99.90
15357;DHT22;7778;48.792;9.260;2023-08-20T03:52:50;21.70;99.90
15357;DHT22;7778;48.792;9.260;2023-08-20T03:55:36;21.70;99.90
15357;DHT22;7778;48.792;9.260;2023-08-20T03:58:23;21.70;99.90
15357;DHT22;7778;48.792;9.260;2023-08-20T04:01:08;21.60;99.90
15357;DHT22;7778;48.792;9.260;2023-08-20T04:03:54;21.60;99.90
15357;DHT22;7778;48.792;9.260;2023-08-20T04:06:39;21.60;99.90
15357;DHT22;7778;48.792;9.260;2023-08-20T04:09:25;21.60;99.90
15357;DHT22;7778;48.792;9.260;2023-08-20T04:12:11;21.60;99.90
15357;DHT22;7778;48.792;9.260;2023-08-20T04:14:58;21.60;99.90
15357;DHT22;7778;48.792;9.260;2023-08-20T04:17:43;21.60;99.90
15357;DHT22;7778;48.792;9.260;2023-08-20T04:20:29;21.70;99.90
15357;DHT22;7778;48.792;9.260;2023-08-20T04:23:15;21.80;99.90
15357;DHT22;7778;48.792;9.260;2023-08-20T04:26:00;21.80;99.90
15357;DHT22;7778;48.792;9.260;2023-08-20T04:28:46;21.70;99.90
15357;DHT22;7778;48.792;9.260;2023-08-20T04:31:34;21.70;99.90
15357;DHT22;7778;48.792;9.260;2023-08-20T04:34:20;21.70;99.90
15357;DHT22;7778;48.792;9.260;2023-08-20T04:37:05;21.60;99.90
15357;DHT22;7778;48.792;9.260;2023-08-20T04:39:51;21.70;99.90
15357;DHT22;7778;48.792;9.260;2023-08-20T04:42:36;21.70;99.90
15357;DHT22;7778;48.792;9.260;2023-08-20T04:45:22;21.80;99.90
15357;DHT22;7778;48.792;9.260;2023-08-20T04:48:09;21.80;99.90
15357;DHT22;7778;48.792;9.260;2023-08-20T04:50:55;21.80;99.90
15357;DHT22;7778;48.792;9.260;2023-08-20T04:53:40;21.90;99.90
15357;DHT22;7778;48.792;9.260;2023-08-20T04:56:26;21.90;99.90
15357;DHT22;7778;48.792;9.260;2023-08-20T04:59:11;21.90;99.90
15357;DHT22;7778;48.792;9.260;2023-08-20T05:01:57;21.90;99.90
15357;DHT22;7778;48.792;9.260;2023-08-20T05:04:44;22.00;99.90
15357;DHT22;7778;48.792;9.260;2023-08-20T05:07:29;22.00;99.90
15357;DHT22;7778;48.792;9.260;2023-08-20T05:10:15;22.00;99.90
15357;DHT22;7778;48.792;9.260;2023-08-20T05:13:01;22.00;99.90
15357;DHT22;7778;48.792;9.260;2023-08-20T05:15:46;21.90;99.90
15357;DHT22;7778;48.792;9.260;2023-08-20T05:18:32;21.70;99.90
15357;DHT22;7778;48.792;9.260;2023-08-20T05:21:19;21.90;99.90
15357;DHT22;7778;48.792;9.260;2023-08-20T05:24:05;22.10;99.90
15357;DHT22;7778;48.792;9.260;2023-08-20T05:27:04;22.00;99.90
15357;DHT22;7778;48.792;9.260;2023-08-20T05:29:50;21.80;99.90
15357;DHT22;7778;48.792;9.260;2023-08-20T05:32:36;22.00;99.90
15357;DHT22;7778;48.792;9.260;2023-08-20T05:35:21;22.00;99.90
15357;DHT22;7778;48.792;9.260;2023-08-20T05:38:08;22.00;99.90
15357;DHT22;7778;48.792;9.260;2023-08-20T05:40:54;22.10;99.90
15357;DHT22;7778;48.792;9.260;2023-08-20T05:43:39;22.40;99.90
15357;DHT22;7778;48.792;9.260;2023-08-20T05:46:25;22.60;99.90
15357;DHT22;7778;48.792;9.260;2023-08-20T05:49:12;22.90;99.90
15357;DHT22;7778;48.792;9.260;2023-08-20T05:51:59;22.90;99.90
15357;DHT22;7778;48.792;9.260;2023-08-20T05:54:46;23.10;99.90
15357;DHT22;7778;48.792;9.260;2023-08-20T05:57:32;23.40;99.90
15357;DHT22;7778;48.792;9.260;2023-08-20T06:00:20;23.80;99.90
15357;DHT22;7778;48.792;9.260;2023-08-20T06:03:06;24.00;99.90
15357;DHT22;7778;48.792;9.260;2023-08-20T06:05:52;25.10;99.90
15357;DHT22;7778;48.792;9.260;2023-08-20T06:08:37;26.60;99.90
15357;DHT22;7778;48.792;9.260;2023-08-20T06:11:24;28.10;99.90
15357;DHT22;7778;48.792;9.260;2023-08-20T06:14:10;28.20;99.90
15357;DHT22;7778;48.792;9.260;2023-08-20T06:16:55;29.40;99.90
15357;DHT22;7778;48.792;9.260;2023-08-20T06:19:41;29.90;99.90
15357;DHT22;7778;48.792;9.260;2023-08-20T06:22:26;30.10;99.90
15357;DHT22;7778;48.792;9.260;2023-08-20T06:25:12;30.30;99.90
15357;DHT22;7778;48.792;9.260;2023-08-20T06:27:59;30.10;99.90
15357;DHT22;7778;48.792;9.260;2023-08-20T06:30:45;30.30;99.90
15357;DHT22;7778;48.792;9.260;2023-08-20T06:33:31;30.90;99.90
15357;DHT22;7778;48.792;9.260;2023-08-20T06:36:16;31.90;99.90
15357;DHT22;7778;48.792;9.260;2023-08-20T06:39:02;32.70;99.90
15357;DHT22;7778;48.792;9.260;2023-08-20T06:41:49;33.30;99.90
15357;DHT22;7778;48.792;9.260;2023-08-20T06:44:35;33.80;99.90
15357;DHT22;7778;48.792;9.260;2023-08-20T06:47:21;33.10;99.90
15357;DHT22;7778;48.792;9.260;2023-08-20T06:50:07;32.50;99.90
15357;DHT22;7778;48.792;9.260;2023-08-20T06:52:53;31.40;99.90
15357;DHT22;7778;48.792;9.260;2023-08-20T06:55:38;31.20;99.90
15357;DHT22;7778;48.792;9.260;2023-08-20T06:58:24;31.20;99.90
15357;DHT22;7778;48.792;9.260;2023-08-20T07:01:11;31.60;99.90
15357;DHT22;7778;48.792;9.260;2023-08-20T07:03:57;32.00;99.90
15357;DHT22;7778;48.792;9.260;2023-08-20T07:06:42;32.70;99.90
15357;DHT22;7778;48.792;9.260;2023-08-20T07:09:28;33.10;99.90
15357;DHT22;7778;48.792;9.260;2023-08-20T07:12:14;33.00;99.90
15357;DHT22;7778;48.792;9.260;2023-08-20T07:15:00;33.20;99.90
15357;DHT22;7778;48.792;9.260;2023-08-20T07:17:49;32.20;99.90
15357;DHT22;7778;48.792;9.260;2023-08-20T07:20:34;32.10;99.90
15357;DHT22;7778;48.792;9.260;2023-08-20T07:23:20;32.90;99.90
15357;DHT22;7778;48.792;9.260;2023-08-20T07:26:07;33.60;99.90
15357;DHT22;7778;48.792;9.260;2023-08-20T07:28:53;34.00;99.90
15357;DHT22;7778;48.792;9.260;2023-08-20T07:31:42;34.70;99.90
15357;DHT22;7778;48.792;9.260;2023-08-20T07:34:29;35.50;99.90
15357;DHT22;7778;48.792;9.260;2023-08-20T07:37:14;35.90;99.90
15357;DHT22;7778;48.792;9.260;2023-08-20T07:40:00;36.40;99.90
15357;DHT22;7778;48.792;9.260;2023-08-20T07:42:46;36.90;99.90
15357;DHT22;7778;48.792;9.260;2023-08-20T07:45:32;37.40;99.90
15357;DHT22;7778;48.792;9.260;2023-08-20T07:48:18;37.50;99.90
15357;DHT22;7778;48.792;9.260;2023-08-20T07:51:05;37.10;99.90
15357;DHT22;7778;48.792;9.260;2023-08-20T07:53:51;36.60;99.90
15357;DHT22;7778;48.792;9.260;2023-08-20T07:56:37;35.30;99.90
15357;DHT22;7778;48.792;9.260;2023-08-20T07:59:22;34.80;99.90
15357;DHT22;7778;48.792;9.260;2023-08-20T08:02:08;34.30;99.90
15357;DHT22;7778;48.792;9.260;2023-08-20T08:04:54;34.10;99.90
15357;DHT22;7778;48.792;9.260;2023-08-20T08:07:41;34.70;99.90
15357;DHT22;7778;48.792;9.260;2023-08-20T08:10:26;35.30;99.90
15357;DHT22;7778;48.792;9.260;2023-08-20T08:13:12;35.20;99.90
15357;DHT22;7778;48.792;9.260;2023-08-20T08:15:58;36.20;99.90
15357;DHT22;7778;48.792;9.260;2023-08-20T08:18:44;36.10;99.90
15357;DHT22;7778;48.792;9.260;2023-08-20T08:21:29;35.90;99.90
15357;DHT22;7778;48.792;9.260;2023-08-20T08:24:16;36.00;99.90
15357;DHT22;7778;48.792;9.260;2023-08-20T08:27:02;36.20;99.90
15357;DHT22;7778;48.792;9.260;2023-08-20T08:29:48;35.80;99.90
15357;DHT22;7778;48.792;9.260;2023-08-20T08:32:34;35.20;99.90
15357;DHT22;7778;48.792;9.260;2023-08-20T08:35:19;36.00;99.90
15357;DHT22;7778;48.792;9.260;2023-08-20T08:38:05;35.60;99.90
15357;DHT22;7778;48.792;9.260;2023-08-20T08:40:52;36.60;99.90
15357;DHT22;7778;48.792;9.260;2023-08-20T08:43:38;37.50;99.90
15357;DHT22;7778;48.792;9.260;2023-08-20T08:46:25;37.30;99.90
15357;DHT22;7778;48.792;9.260;2023-08-20T08:49:11;37.20;99.90
15357;DHT22;7778;48.792;9.260;2023-08-20T08:51:56;37.20;99.90
15357;DHT22;7778;48.792;9.260;2023-08-20T08:54:42;36.60;99.90
15357;DHT22;7778;48.792;9.260;2023-08-20T08:57:30;36.90;99.90
15357;DHT22;7778;48.792;9.260;2023-08-20T09:00:17;37.10;99.90
15357;DHT22;7778;48.792;9.260;2023-08-20T09:03:03;37.90;99.90
15357;DHT22;7778;48.792;9.260;2023-08-20T09:05:50;38.90;99.90
15357;DHT22;7778;48.792;9.260;2023-08-20T09:08:39;38.80;99.90
15357;DHT22;7778;48.792;9.260;2023-08-20T09:11:34;39.10;99.90
15357;DHT22;7778;48.792;9.260;2023-08-20T09:14:23;38.90;99.90
15357;DHT22;7778;48.792;9.260;2023-08-20T09:17:10;38.60;99.90
15357;DHT22;7778;48.792;9.260;2023-08-20T09:19:57;37.70;99.90
15357;DHT22;7778;48.792;9.260;2023-08-20T09:22:48;38.10;99.90
15357;DHT22;7778;48.792;9.260;2023-08-20T09:25:34;39.10;99.90
15357;DHT22;7778;48.792;9.260;2023-08-20T09:28:21;39.10;99.90
15357;DHT22;7778;48.792;9.260;2023-08-20T09:31:08;39.10;99.90
15357;DHT22;7778;48.792;9.260;2023-08-20T09:33:54;39.90;99.40
15357;DHT22;7778;48.792;9.260;2023-08-20T09:36:43;40.30;98.00
15357;DHT22;7778;48.792;9.260;2023-08-20T09:39:29;39.90;97.30
15357;DHT22;7778;48.792;9.260;2023-08-20T09:42:15;39.80;98.60
15357;DHT22;7778;48.792;9.260;2023-08-20T09:45:02;40.10;97.50
15357;DHT22;7778;48.792;9.260;2023-08-20T09:47:54;40.30;95.90
15357;DHT22;7778;48.792;9.260;2023-08-20T09:50:41;39.90;95.10
15357;DHT22;7778;48.792;9.260;2023-08-20T09:53:34;39.50;96.40
15357;DHT22;7778;48.792;9.260;2023-08-20T09:56:28;38.20;96.90
15357;DHT22;7778;48.792;9.260;2023-08-20T09:59:15;38.30;97.70
15357;DHT22;7778;48.792;9.260;2023-08-20T10:02:02;39.10;96.30
15357;DHT22;7778;48.792;9.260;2023-08-20T10:04:49;39.40;94.40
15357;DHT22;7778;48.792;9.260;2023-08-20T10:07:36;38.90;95.80
15357;DHT22;7778;48.792;9.260;2023-08-20T10:10:22;38.50;96.10
15357;DHT22;7778;48.792;9.260;2023-08-20T10:13:08;39.10;95.60
15357;DHT22;7778;48.792;9.260;2023-08-20T10:15:54;38.80;95.00
15357;DHT22;7778;48.792;9.260;2023-08-20T10:18:40;39.10;95.20
15357;DHT22;7778;48.792;9.260;2023-08-20T10:21:28;39.50;94.80
15357;DHT22;7778;48.792;9.260;2023-08-20T10:24:17;40.10;93.40
15357;DHT22;7778;48.792;9.260;2023-08-20T10:27:10;40.00;92.50
15357;DHT22;7778;48.792;9.260;2023-08-20T10:29:56;39.80;92.90
15357;DHT22;7778;48.792;9.260;2023-08-20T10:32:45;39.90;91.30
15357;DHT22;7778;48.792;9.260;2023-08-20T10:35:47;40.10;91.10
15357;DHT22;7778;48.792;9.260;2023-08-20T10:38:37;40.50;91.70
15357;DHT22;7778;48.792;9.260;2023-08-20T10:41:26;40.50;90.70
15357;DHT22;7778;48.792;9.260;2023-08-20T10:44:14;40.70;91.30
15357;DHT22;7778;48.792;9.260;2023-08-20T10:46:59;40.70;90.90
15357;DHT22;7778;48.792;9.260;2023-08-20T10:49:46;40.10;89.60
15357;DHT22;7778;48.792;9.260;2023-08-20T10:52:38;39.70;91.20
15357;DHT22;7778;48.792;9.260;2023-08-20T10:55:26;39.60;91.10
15357;DHT22;7778;48.792;9.260;2023-08-20T10:58:13;39.50;90.50
15357;DHT22;7778;48.792;9.260;2023-08-20T11:01:16;39.30;91.00
15357;DHT22;7778;48.792;9.260;2023-08-20T11:04:04;38.70;90.10
15357;DHT22;7778;48.792;9.260;2023-08-20T11:06:53;37.70;92.60
15357;DHT22;7778;48.792;9.260;2023-08-20T11:09:40;37.50;92.30
15357;DHT22;7778;48.792;9.260;2023-08-20T11:12:30;37.00;92.40
15357;DHT22;7778;48.792;9.260;2023-08-20T11:15:16;35.90;93.80
15357;DHT22;7778;48.792;9.260;2023-08-20T11:18:04;35.10;93.50
15357;DHT22;7778;48.792;9.260;2023-08-20T11:20:51;35.00;93.10
15357;DHT22;7778;48.792;9.260;2023-08-20T11:23:36;35.20;95.30
15357;DHT22;7778;48.792;9.260;2023-08-20T11:26:23;35.60;95.70
15357;DHT22;7778;48.792;9.260;2023-08-20T11:29:12;35.80;93.90
15357;DHT22;7778;48.792;9.260;2023-08-20T11:32:01;35.80;95.60
15357;DHT22;7778;48.792;9.260;2023-08-20T11:34:47;35.90;94.90
15357;DHT22;7778;48.792;9.260;2023-08-20T11:37:33;35.70;94.50
15357;DHT22;7778;48.792;9.260;2023-08-20T11:40:20;34.60;95.80
15357;DHT22;7778;48.792;9.260;2023-08-20T11:43:06;34.00;97.20
15357;DHT22;7778;48.792;9.260;2023-08-20T11:45:53;34.30;97.90
15357;DHT22;7778;48.792;9.260;2023-08-20T11:48:39;34.80;98.20
15357;DHT22;7778;48.792;9.260;2023-08-20T11:51:24;35.20;98.60
15357;DHT22;7778;48.792;9.260;2023-08-20T11:54:11;35.20;97.90
15357;DHT22;7778;48.792;9.260;2023-08-20T11:57:02;35.60;96.40
15357;DHT22;7778;48.792;9.260;2023-08-20T11:59:49;35.50;95.40
15357;DHT22;7778;48.792;9.260;2023-08-20T12:02:36;35.20;96.00
15357;DHT22;7778;48.792;9.260;2023-08-20T12:05:22;34.90;95.30
15357;DHT22;7778;48.792;9.260;2023-08-20T12:08:15;35.00;95.60
15357;DHT22;7778;48.792;9.260;2023-08-20T12:11:02;35.20;96.70
15357;DHT22;7778;48.792;9.260;2023-08-20T12:13:48;35.20;95.10
15357;DHT22;7778;48.792;9.260;2023-08-20T12:16:33;35.20;95.50
15357;DHT22;7778;48.792;9.260;2023-08-20T12:19:20;35.40;96.00
15357;DHT22;7778;48.792;9.260;2023-08-20T12:22:07;35.50;95.40
15357;DHT22;7778;48.792;9.260;2023-08-20T12:24:53;35.20;94.00
15357;DHT22;7778;48.792;9.260;2023-08-20T12:27:38;34.90;94.70
15357;DHT22;7778;48.792;9.260;2023-08-20T12:30:24;34.90;95.20
15357;DHT22;7778;48.792;9.260;2023-08-20T12:33:09;34.70;94.50
15357;DHT22;7778;48.792;9.260;2023-08-20T12:35:58;34.90;94.70
15357;DHT22;7778;48.792;9.260;2023-08-20T12:38:44;35.10;94.40
15357;DHT22;7778;48.792;9.260;2023-08-20T12:41:29;35.20;95.50
15357;DHT22;7778;48.792;9.260;2023-08-20T12:44:15;35.40;95.90
15357;DHT22;7778;48.792;9.260;2023-08-20T12:47:01;35.10;94.90
15357;DHT22;7778;48.792;9.260;2023-08-20T12:49:47;35.00;94.10
15357;DHT22;7778;48.792;9.260;2023-08-20T12:52:34;34.50;95.40
15357;DHT22;7778;48.792;9.260;2023-08-20T12:55:19;34.80;94.70
15357;DHT22;7778;48.792;9.260;2023-08-20T12:58:05;34.90;94.90
15357;DHT22;7778;48.792;9.260;2023-08-20T13:00:52;34.90;96.30
15357;DHT22;7778;48.792;9.260;2023-08-20T13:03:38;34.90;95.80
15357;DHT22;7778;48.792;9.260;2023-08-20T13:06:24;34.90;94.80
15357;DHT22;7778;48.792;9.260;2023-08-20T13:09:12;34.60;95.30
15357;DHT22;7778;48.792;9.260;2023-08-20T13:12:01;34.60;95.70
15357;DHT22;7778;48.792;9.260;2023-08-20T13:14:48;34.70;95.60
15357;DHT22;7778;48.792;9.260;2023-08-20T13:17:35;34.40;94.70
15357;DHT22;7778;48.792;9.260;2023-08-20T13:20:21;34.30;95.70
15357;DHT22;7778;48.792;9.260;2023-08-20T13:23:08;34.20;96.00
15357;DHT22;7778;48.792;9.260;2023-08-20T13:25:54;34.10;94.40
15357;DHT22;7778;48.792;9.260;2023-08-20T13:28:40;34.10;96.80
15357;DHT22;7778;48.792;9.260;2023-08-20T13:31:25;34.20;96.00
15357;DHT22;7778;48.792;9.260;2023-08-20T13:34:11;34.30;95.00
15357;DHT22;7778;48.792;9.260;2023-08-20T13:36:56;34.00;93.70
15357;DHT22;7778;48.792;9.260;2023-08-20T13:39:43;33.40;93.60
15357;DHT22;7778;48.792;9.260;2023-08-20T13:42:29;33.30;95.90
15357;DHT22;7778;48.792;9.260;2023-08-20T13:45:16;33.20;94.40
15357;DHT22;7778;48.792;9.260;2023-08-20T13:48:01;33.20;95.20
15357;DHT22;7778;48.792;9.260;2023-08-20T13:50:47;33.10;95.00
15357;DHT22;7778;48.792;9.260;2023-08-20T13:53:33;33.20;95.70
15357;DHT22;7778;48.792;9.260;2023-08-20T13:56:19;33.40;96.10
15357;DHT22;7778;48.792;9.260;2023-08-20T13:59:06;33.70;95.90
15357;DHT22;7778;48.792;9.260;2023-08-20T14:05:52;34.20;94.00
15357;DHT22;7778;48.792;9.260;2023-08-20T14:08:38;33.90;93.10
15357;DHT22;7778;48.792;9.260;2023-08-20T14:11:24;33.80;95.10
15357;DHT22;7778;48.792;9.260;2023-08-20T14:14:11;33.90;95.30
15357;DHT22;7778;48.792;9.260;2023-08-20T14:16:57;34.00;95.50
15357;DHT22;7778;48.792;9.260;2023-08-20T14:19:43;33.90;93.60
15357;DHT22;7778;48.792;9.260;2023-08-20T14:22:28;33.70;94.20
15357;DHT22;7778;48.792;9.260;2023-08-20T14:25:14;33.40;94.10
15357;DHT22;7778;48.792;9.260;2023-08-20T14:28:00;33.40;95.40
15357;DHT22;7778;48.792;9.260;2023-08-20T14:30:48;33.40;96.80
15357;DHT22;7778;48.792;9.260;2023-08-20T14:33:34;33.40;97.50
15357;DHT22;7778;48.792;9.260;2023-08-20T14:36:20;33.40;97.10
15357;DHT22;7778;48.792;9.260;2023-08-20T15:06:02;32.60;99.90
15357;DHT22;7778;48.792;9.260;2023-08-20T15:08:48;32.60;99.90
15357;DHT22;7778;48.792;9.260;2023-08-20T15:11:33;32.60;99.90
15357;DHT22;7778;48.792;9.260;2023-08-20T15:14:19;32.40;99.90
15357;DHT22;7778;48.792;9.260;2023-08-20T15:17:06;32.40;99.90
15357;DHT22;7778;48.792;9.260;2023-08-20T15:19:52;32.20;99.90
15357;DHT22;7778;48.792;9.260;2023-08-20T15:22:40;32.20;99.90
15357;DHT22;7778;48.792;9.260;2023-08-20T15:25:26;32.10;99.90
15357;DHT22;7778;48.792;9.260;2023-08-20T15:28:11;32.20;99.90
15357;DHT22;7778;48.792;9.260;2023-08-20T15:30:57;32.40;99.90
15357;DHT22;7778;48.792;9.260;2023-08-20T15:33:43;32.70;99.90
15357;DHT22;7778;48.792;9.260;2023-08-20T15:36:28;32.90;99.90
15357;DHT22;7778;48.792;9.260;2023-08-20T15:39:15;33.00;99.90
15357;DHT22;7778;48.792;9.260;2023-08-20T15:42:02;32.90;99.90
15357;DHT22;7778;48.792;9.260;2023-08-20T15:44:48;33.00;99.90
15357;DHT22;7778;48.792;9.260;2023-08-20T15:47:33;32.90;99.90
15357;DHT22;7778;48.792;9.260;2023-08-20T15:50:18;32.80;99.90
15357;DHT22;7778;48.792;9.260;2023-08-20T15:53:04;32.80;99.10
15357;DHT22;7778;48.792;9.260;2023-08-20T15:55:51;32.80;99.90
15357;DHT22;7778;48.792;9.260;2023-08-20T15:58:36;32.70;98.90
15357;DHT22;7778;48.792;9.260;2023-08-20T16:01:22;32.50;99.60
15357;DHT22;7778;48.792;9.260;2023-08-20T16:04:12;32.40;98.30
15357;DHT22;7778;48.792;9.260;2023-08-20T16:06:57;32.20;99.90
15357;DHT22;7778;48.792;9.260;2023-08-20T16:09:43;32.10;99.40
15357;DHT22;7778;48.792;9.260;2023-08-20T16:12:29;32.20;99.70
15357;DHT22;7778;48.792;9.260;2023-08-20T16:15:15;32.20;98.90
15357;DHT22;7778;48.792;9.260;2023-08-20T16:18:00;32.00;98.30
15357;DHT22;7778;48.792;9.260;2023-08-20T16:20:46;32.00;98.20
15357;DHT22;7778;48.792;9.260;2023-08-20T16:23:32;31.90;97.80
15357;DHT22;7778;48.792;9.260;2023-08-20T16:26:18;31.90;98.60
15357;DHT22;7778;48.792;9.260;2023-08-20T16:29:05;32.00;98.40
15357;DHT22;7778;48.792;9.260;2023-08-20T16:31:51;31.80;98.00
15357;DHT22;7778;48.792;9.260;2023-08-20T16:34:36;31.70;97.50
15357;DHT22;7778;48.792;9.260;2023-08-20T16:37:22;31.80;97.80
15357;DHT22;7778;48.792;9.260;2023-08-20T16:40:19;31.90;98.60
15357;DHT22;7778;48.792;9.260;2023-08-20T16:43:05;31.80;97.00
15357;DHT22;7778;48.792;9.260;2023-08-20T16:45:55;31.70;96.90
15357;DHT22;7778;48.792;9.260;2023-08-20T16:48:42;31.60;97.90
15357;DHT22;7778;48.792;9.260;2023-08-20T16:51:28;31.50;97.70
15357;DHT22;7778;48.792;9.260;2023-08-20T16:54:14;31.50;97.80
15357;DHT22;7778;48.792;9.260;2023-08-20T16:56:59;31.50;98.70
15357;DHT22;7778;48.792;9.260;2023-08-20T16:59:44;31.50;99.90
15357;DHT22;7778;48.792;9.260;2023-08-20T17:02:31;31.50;99.90
15357;DHT22;7778;48.792;9.260;2023-08-20T17:05:20;31.40;99.90
15357;DHT22;7778;48.792;9.260;2023-08-20T17:08:06;31.40;99.90
15357;DHT22;7778;48.792;9.260;2023-08-20T17:10:51;31.40;99.90
15357;DHT22;7778;48.792;9.260;2023-08-20T17:13:38;31.30;99.90
15357;DHT22;7778;48.792;9.260;2023-08-20T17:16:24;31.30;99.90
15357;DHT22;7778;48.792;9.260;2023-08-20T17:19:11;31.30;99.90
15357;DHT22;7778;48.792;9.260;2023-08-20T17:21:57;31.30;99.90
15357;DHT22;7778;48.792;9.260;2023-08-20T17:24:42;31.20;99.90
15357;DHT22;7778;48.792;9.260;2023-08-20T17:27:28;31.10;99.90
15357;DHT22;7778;48.792;9.260;2023-08-20T17:30:14;31.10;99.90
15357;DHT22;7778;48.792;9.260;2023-08-20T17:33:00;31.00;99.90
15357;DHT22;7778;48.792;9.260;2023-08-20T17:35:48;30.90;99.90
15357;DHT22;7778;48.792;9.260;2023-08-20T17:38:34;30.90;99.90
15357;DHT22;7778;48.792;9.260;2023-08-20T17:41:20;30.90;99.90
15357;DHT22;7778;48.792;9.260;2023-08-20T17:44:05;30.90;99.90
15357;DHT22;7778;48.792;9.260;2023-08-20T17:46:51;30.90;99.90
15357;DHT22;7778;48.792;9.260;2023-08-20T17:49:36;30.80;99.90
15357;DHT22;7778;48.792;9.260;2023-08-20T17:52:25;30.70;99.90
15357;DHT22;7778;48.792;9.260;2023-08-20T17:55:13;30.60;99.90
15357;DHT22;7778;48.792;9.260;2023-08-20T17:58:06;30.60;99.90
15357;DHT22;7778;48.792;9.260;2023-08-20T18:00:52;30.60;99.90
15357;DHT22;7778;48.792;9.260;2023-08-20T18:03:41;30.50;99.90
15357;DHT22;7778;48.792;9.260;2023-08-20T18:06:27;30.50;99.90
15357;DHT22;7778;48.792;9.260;2023-08-20T18:09:16;30.50;99.90
15357;DHT22;7778;48.792;9.260;2023-08-20T18:12:03;30.40;99.90
15357;DHT22;7778;48.792;9.260;2023-08-20T18:14:50;30.40;99.90
15357;DHT22;7778;48.792;9.260;2023-08-20T18:17:36;30.30;99.90
15357;DHT22;7778;48.792;9.260;2023-08-20T18:20:22;30.20;99.90